sensor_id;sensor_type;location;lat;lon;timestamp;P1;durP1;ratioP1;P2;durP2;ratioP2
13687;SDS011;6916;51.504;7.416;2022-07-06T00:01:14;2.58;;;0.85;;
13687;SDS011;6916;51.504;7.416;2022-07-06T00:06:16;4.38;;;0.80;;
13687;SDS011;6916;51.504;7.416;2022-07-06T00:11:19;2.75;;;0.85;;
13687;SDS011;6916;51.504;7.416;2022-07-06T00:16:22;2.65;;;0.93;;
13687;SDS011;6916;51.504;7.416;2022-07-06T00:21:24;1.75;;;0.70;;
13687;SDS011;6916;51.504;7.416;2022-07-06T00:26:26;4.85;;;1.15;;
13687;SDS011;6916;51.504;7.416;2022-07-06T00:31:29;4.45;;;1.10;;
13687;SDS011;6916;51.504;7.416;2022-07-06T00:36:31;4.05;;;1.10;;
13687;SDS011;6916;51.504;7.416;2022-07-06T00:41:33;3.78;;;0.95;;
13687;SDS011;6916;51.504;7.416;2022-07-06T00:46:35;2.20;;;1.05;;
13687;SDS011;6916;51.504;7.416;2022-07-06T00:51:38;6.22;;;1.00;;
13687;SDS011;6916;51.504;7.416;2022-07-06T00:56:40;6.72;;;1.20;;
13687;SDS011;6916;51.504;7.416;2022-07-06T01:01:43;3.03;;;1.10;;
13687;SDS011;6916;51.504;7.416;2022-07-06T01:06:46;3.70;;;1.38;;
13687;SDS011;6916;51.504;7.416;2022-07-06T01:11:49;3.33;;;1.05;;
13687;SDS011;6916;51.504;7.416;2022-07-06T01:16:52;2.35;;;1.13;;
13687;SDS011;6916;51.504;7.416;2022-07-06T01:21:55;2.42;;;0.98;;
13687;SDS011;6916;51.504;7.416;2022-07-06T01:26:58;1.75;;;1.02;;
13687;SDS011;6916;51.504;7.416;2022-07-06T01:32:00;4.07;;;1.25;;
13687;SDS011;6916;51.504;7.416;2022-07-06T01:37:03;4.95;;;1.20;;
13687;SDS011;6916;51.504;7.416;2022-07-06T01:42:05;2.28;;;1.10;;
13687;SDS011;6916;51.504;7.416;2022-07-06T01:47:07;1.88;;;0.98;;
13687;SDS011;6916;51.504;7.416;2022-07-06T01:52:10;3.45;;;0.98;;
13687;SDS011;6916;51.504;7.416;2022-07-06T01:57:12;0.82;;;0.82;;
13687;SDS011;6916;51.504;7.416;2022-07-06T02:02:14;3.05;;;1.10;;
13687;SDS011;6916;51.504;7.416;2022-07-06T02:07:19;3.55;;;1.10;;
13687;SDS011;6916;51.504;7.416;2022-07-06T02:12:21;4.38;;;0.90;;
13687;SDS011;6916;51.504;7.416;2022-07-06T02:17:25;3.57;;;0.90;;
13687;SDS011;6916;51.504;7.416;2022-07-06T02:22:28;3.28;;;0.90;;
13687;SDS011;6916;51.504;7.416;2022-07-06T02:27:30;2.22;;;0.68;;
13687;SDS011;6916;51.504;7.416;2022-07-06T02:32:34;3.83;;;0.60;;
13687;SDS011;6916;51.504;7.416;2022-07-06T02:37:37;6.90;;;1.03;;
13687;SDS011;6916;51.504;7.416;2022-07-06T02:42:40;0.93;;;0.65;;
13687;SDS011;6916;51.504;7.416;2022-07-06T02:47:43;3.25;;;0.82;;
13687;SDS011;6916;51.504;7.416;2022-07-06T02:52:46;2.85;;;0.98;;
13687;SDS011;6916;51.504;7.416;2022-07-06T02:57:49;2.20;;;0.63;;
13687;SDS011;6916;51.504;7.416;2022-07-06T03:02:51;1.80;;;0.60;;
13687;SDS011;6916;51.504;7.416;2022-07-06T03:07:54;2.80;;;0.90;;
13687;SDS011;6916;51.504;7.416;2022-07-06T03:12:56;1.25;;;0.85;;
13687;SDS011;6916;51.504;7.416;2022-07-06T03:17:58;3.67;;;1.17;;
13687;SDS011;6916;51.504;7.416;2022-07-06T03:23:01;2.05;;;1.10;;
13687;SDS011;6916;51.504;7.416;2022-07-06T03:28:04;1.40;;;0.90;;
13687;SDS011;6916;51.504;7.416;2022-07-06T03:33:06;3.13;;;1.23;;
13687;SDS011;6916;51.504;7.416;2022-07-06T03:38:09;4.93;;;1.13;;
13687;SDS011;6916;51.504;7.416;2022-07-06T03:43:15;2.33;;;0.90;;
13687;SDS011;6916;51.504;7.416;2022-07-06T03:48:18;2.53;;;1.00;;
13687;SDS011;6916;51.504;7.416;2022-07-06T03:53:21;2.53;;;1.20;;
13687;SDS011;6916;51.504;7.416;2022-07-06T03:58:25;3.20;;;1.17;;
13687;SDS011;6916;51.504;7.416;2022-07-06T04:03:27;4.63;;;1.40;;
13687;SDS011;6916;51.504;7.416;2022-07-06T04:08:35;1.55;;;1.25;;
13687;SDS011;6916;51.504;7.416;2022-07-06T04:13:38;3.42;;;1.20;;
13687;SDS011;6916;51.504;7.416;2022-07-06T04:18:41;3.23;;;1.10;;
13687;SDS011;6916;51.504;7.416;2022-07-06T04:23:44;3.17;;;1.37;;
13687;SDS011;6916;51.504;7.416;2022-07-06T04:28:48;6.67;;;1.67;;
13687;SDS011;6916;51.504;7.416;2022-07-06T04:33:51;3.65;;;1.30;;
13687;SDS011;6916;51.504;7.416;2022-07-06T04:38:55;4.45;;;1.35;;
13687;SDS011;6916;51.504;7.416;2022-07-06T04:43:58;4.43;;;1.23;;
13687;SDS011;6916;51.504;7.416;2022-07-06T04:49:01;2.25;;;1.20;;
13687;SDS011;6916;51.504;7.416;2022-07-06T04:54:05;5.73;;;1.27;;
13687;SDS011;6916;51.504;7.416;2022-07-06T04:59:09;6.30;;;1.80;;
13687;SDS011;6916;51.504;7.416;2022-07-06T05:04:12;4.78;;;1.38;;
13687;SDS011;6916;51.504;7.416;2022-07-06T05:09:15;3.20;;;1.40;;
13687;SDS011;6916;51.504;7.416;2022-07-06T05:14:20;4.53;;;1.60;;
13687;SDS011;6916;51.504;7.416;2022-07-06T05:19:22;2.15;;;0.55;;
13687;SDS011;6916;51.504;7.416;2022-07-06T05:24:25;4.95;;;1.70;;
13687;SDS011;6916;51.504;7.416;2022-07-06T05:29:27;5.38;;;1.38;;
13687;SDS011;6916;51.504;7.416;2022-07-06T05:34:30;3.03;;;1.17;;
13687;SDS011;6916;51.504;7.416;2022-07-06T05:39:32;3.27;;;1.20;;
13687;SDS011;6916;51.504;7.416;2022-07-06T05:44:34;3.58;;;1.63;;
13687;SDS011;6916;51.504;7.416;2022-07-06T05:49:37;3.42;;;1.35;;
13687;SDS011;6916;51.504;7.416;2022-07-06T05:54:58;4.40;;;1.30;;
13687;SDS011;6916;51.504;7.416;2022-07-06T06:00:01;6.63;;;1.73;;
13687;SDS011;6916;51.504;7.416;2022-07-06T06:05:06;6.00;;;1.07;;
13687;SDS011;6916;51.504;7.416;2022-07-06T06:10:10;4.30;;;0.77;;
13687;SDS011;6916;51.504;7.416;2022-07-06T06:15:14;3.75;;;0.73;;
13687;SDS011;6916;51.504;7.416;2022-07-06T06:20:16;4.17;;;0.77;;
13687;SDS011;6916;51.504;7.416;2022-07-06T06:25:19;2.63;;;0.63;;
13687;SDS011;6916;51.504;7.416;2022-07-06T06:30:23;3.10;;;0.55;;
13687;SDS011;6916;51.504;7.416;2022-07-06T06:35:26;2.30;;;0.60;;
13687;SDS011;6916;51.504;7.416;2022-07-06T06:40:28;10.35;;;1.50;;
13687;SDS011;6916;51.504;7.416;2022-07-06T06:45:31;6.07;;;1.00;;
13687;SDS011;6916;51.504;7.416;2022-07-06T06:50:36;2.00;;;0.52;;
13687;SDS011;6916;51.504;7.416;2022-07-06T06:55:38;1.88;;;0.45;;
13687;SDS011;6916;51.504;7.416;2022-07-06T07:00:41;1.85;;;0.30;;
13687;SDS011;6916;51.504;7.416;2022-07-06T07:05:45;4.80;;;0.40;;
13687;SDS011;6916;51.504;7.416;2022-07-06T07:10:47;2.13;;;0.50;;
13687;SDS011;6916;51.504;7.416;2022-07-06T07:15:50;1.25;;;0.32;;
13687;SDS011;6916;51.504;7.416;2022-07-06T07:20:52;2.55;;;0.30;;
13687;SDS011;6916;51.504;7.416;2022-07-06T07:25:54;3.20;;;0.40;;
13687;SDS011;6916;51.504;7.416;2022-07-06T07:30:57;4.28;;;0.47;;
13687;SDS011;6916;51.504;7.416;2022-07-06T07:35:59;3.17;;;0.65;;
13687;SDS011;6916;51.504;7.416;2022-07-06T07:41:01;5.75;;;0.47;;
13687;SDS011;6916;51.504;7.416;2022-07-06T07:46:04;3.63;;;0.75;;
13687;SDS011;6916;51.504;7.416;2022-07-06T07:51:08;5.03;;;0.80;;
13687;SDS011;6916;51.504;7.416;2022-07-06T07:56:11;1.67;;;0.65;;
13687;SDS011;6916;51.504;7.416;2022-07-06T08:01:13;1.08;;;0.40;;
13687;SDS011;6916;51.504;7.416;2022-07-06T08:06:15;1.45;;;0.38;;
13687;SDS011;6916;51.504;7.416;2022-07-06T08:11:18;0.88;;;0.22;;
13687;SDS011;6916;51.504;7.416;2022-07-06T08:16:21;3.78;;;0.20;;
13687;SDS011;6916;51.504;7.416;2022-07-06T08:21:23;1.67;;;0.20;;
13687;SDS011;6916;51.504;7.416;2022-07-06T08:26:28;6.75;;;0.50;;
13687;SDS011;6916;51.504;7.416;2022-07-06T08:31:30;2.15;;;0.40;;
13687;SDS011;6916;51.504;7.416;2022-07-06T08:36:53;3.92;;;0.20;;
13687;SDS011;6916;51.504;7.416;2022-07-06T08:41:56;5.13;;;0.22;;
13687;SDS011;6916;51.504;7.416;2022-07-06T08:46:58;2.20;;;0.40;;
13687;SDS011;6916;51.504;7.416;2022-07-06T08:52:07;4.40;;;0.30;;
13687;SDS011;6916;51.504;7.416;2022-07-06T08:57:10;2.38;;;0.45;;
13687;SDS011;6916;51.504;7.416;2022-07-06T09:02:13;3.10;;;0.40;;
13687;SDS011;6916;51.504;7.416;2022-07-06T09:07:15;4.07;;;0.52;;
13687;SDS011;6916;51.504;7.416;2022-07-06T09:12:38;2.15;;;0.35;;
13687;SDS011;6916;51.504;7.416;2022-07-06T09:17:42;1.70;;;0.35;;
13687;SDS011;6916;51.504;7.416;2022-07-06T09:22:44;3.63;;;0.40;;
13687;SDS011;6916;51.504;7.416;2022-07-06T09:27:47;2.35;;;0.63;;
13687;SDS011;6916;51.504;7.416;2022-07-06T09:32:52;0.63;;;0.30;;
13687;SDS011;6916;51.504;7.416;2022-07-06T09:43:14;2.25;;;0.30;;
13687;SDS011;6916;51.504;7.416;2022-07-06T09:48:17;0.70;;;0.20;;
13687;SDS011;6916;51.504;7.416;2022-07-06T09:53:24;1.65;;;0.35;;
13687;SDS011;6916;51.504;7.416;2022-07-06T09:58:27;3.50;;;0.47;;
13687;SDS011;6916;51.504;7.416;2022-07-06T10:03:50;1.35;;;0.30;;
13687;SDS011;6916;51.504;7.416;2022-07-06T10:08:55;1.23;;;0.30;;
13687;SDS011;6916;51.504;7.416;2022-07-06T10:13:59;5.15;;;0.32;;
13687;SDS011;6916;51.504;7.416;2022-07-06T10:19:07;3.15;;;0.52;;
13687;SDS011;6916;51.504;7.416;2022-07-06T10:24:10;3.42;;;0.30;;
13687;SDS011;6916;51.504;7.416;2022-07-06T10:29:14;1.50;;;0.40;;
13687;SDS011;6916;51.504;7.416;2022-07-06T10:34:18;1.65;;;0.30;;
13687;SDS011;6916;51.504;7.416;2022-07-06T10:39:37;3.97;;;0.45;;
13687;SDS011;6916;51.504;7.416;2022-07-06T10:44:58;1.35;;;0.30;;
13687;SDS011;6916;51.504;7.416;2022-07-06T10:50:01;1.42;;;0.30;;
13687;SDS011;6916;51.504;7.416;2022-07-06T10:55:04;6.30;;;0.40;;
13687;SDS011;6916;51.504;7.416;2022-07-06T11:00:09;4.15;;;0.40;;
13687;SDS011;6916;51.504;7.416;2022-07-06T11:05:13;1.85;;;0.50;;
13687;SDS011;6916;51.504;7.416;2022-07-06T11:11:10;1.58;;;0.40;;
13687;SDS011;6916;51.504;7.416;2022-07-06T11:16:15;1.17;;;0.30;;
13687;SDS011;6916;51.504;7.416;2022-07-06T11:26:22;1.35;;;0.20;;
13687;SDS011;6916;51.504;7.416;2022-07-06T11:31:24;4.82;;;0.30;;
13687;SDS011;6916;51.504;7.416;2022-07-06T11:36:26;3.03;;;0.50;;
13687;SDS011;6916;51.504;7.416;2022-07-06T11:41:36;1.20;;;0.20;;
13687;SDS011;6916;51.504;7.416;2022-07-06T11:46:41;3.83;;;0.32;;
13687;SDS011;6916;51.504;7.416;2022-07-06T11:51:44;1.27;;;0.30;;
13687;SDS011;6916;51.504;7.416;2022-07-06T11:56:52;2.50;;;0.40;;
13687;SDS011;6916;51.504;7.416;2022-07-06T12:07:05;2.38;;;0.20;;
13687;SDS011;6916;51.504;7.416;2022-07-06T12:12:09;3.83;;;0.50;;
13687;SDS011;6916;51.504;7.416;2022-07-06T12:17:13;2.95;;;0.65;;
13687;SDS011;6916;51.504;7.416;2022-07-06T12:22:24;1.92;;;0.20;;
13687;SDS011;6916;51.504;7.416;2022-07-06T12:27:26;3.67;;;0.60;;
13687;SDS011;6916;51.504;7.416;2022-07-06T12:32:29;7.20;;;0.50;;
13687;SDS011;6916;51.504;7.416;2022-07-06T12:37:31;1.08;;;0.20;;
13687;SDS011;6916;51.504;7.416;2022-07-06T12:42:33;1.30;;;0.32;;
13687;SDS011;6916;51.504;7.416;2022-07-06T12:47:36;2.40;;;0.20;;
13687;SDS011;6916;51.504;7.416;2022-07-06T12:52:41;2.55;;;0.30;;
13687;SDS011;6916;51.504;7.416;2022-07-06T12:57:44;1.90;;;0.40;;
13687;SDS011;6916;51.504;7.416;2022-07-06T13:02:52;1.55;;;0.30;;
13687;SDS011;6916;51.504;7.416;2022-07-06T13:08:13;2.78;;;0.20;;
13687;SDS011;6916;51.504;7.416;2022-07-06T13:13:16;1.70;;;0.22;;
13687;SDS011;6916;51.504;7.416;2022-07-06T13:18:18;2.83;;;0.40;;
13687;SDS011;6916;51.504;7.416;2022-07-06T13:23:21;4.57;;;0.50;;
13687;SDS011;6916;51.504;7.416;2022-07-06T13:28:24;4.63;;;0.40;;
13687;SDS011;6916;51.504;7.416;2022-07-06T13:33:26;1.65;;;0.30;;
13687;SDS011;6916;51.504;7.416;2022-07-06T13:38:29;1.90;;;0.20;;
13687;SDS011;6916;51.504;7.416;2022-07-06T13:43:31;1.45;;;0.20;;
13687;SDS011;6916;51.504;7.416;2022-07-06T13:48:38;3.13;;;0.20;;
13687;SDS011;6916;51.504;7.416;2022-07-06T13:53:40;0.90;;;0.35;;
13687;SDS011;6916;51.504;7.416;2022-07-06T13:58:42;0.77;;;0.30;;
13687;SDS011;6916;51.504;7.416;2022-07-06T14:03:46;2.75;;;0.25;;
13687;SDS011;6916;51.504;7.416;2022-07-06T14:08:48;2.78;;;0.32;;
13687;SDS011;6916;51.504;7.416;2022-07-06T14:13:50;2.13;;;0.25;;
13687;SDS011;6916;51.504;7.416;2022-07-06T14:18:53;3.10;;;0.45;;
13687;SDS011;6916;51.504;7.416;2022-07-06T14:23:55;1.73;;;0.25;;
13687;SDS011;6916;51.504;7.416;2022-07-06T14:28:57;4.68;;;0.45;;
13687;SDS011;6916;51.504;7.416;2022-07-06T14:34:00;4.53;;;0.40;;
13687;SDS011;6916;51.504;7.416;2022-07-06T14:39:02;2.30;;;0.40;;
13687;SDS011;6916;51.504;7.416;2022-07-06T14:44:04;3.70;;;0.50;;
13687;SDS011;6916;51.504;7.416;2022-07-06T14:49:06;4.43;;;0.30;;
13687;SDS011;6916;51.504;7.416;2022-07-06T14:54:09;3.13;;;0.38;;
13687;SDS011;6916;51.504;7.416;2022-07-06T14:59:11;2.13;;;0.35;;
13687;SDS011;6916;51.504;7.416;2022-07-06T15:04:26;5.07;;;0.40;;
13687;SDS011;6916;51.504;7.416;2022-07-06T15:09:28;4.10;;;0.50;;
13687;SDS011;6916;51.504;7.416;2022-07-06T15:14:32;2.72;;;0.55;;
13687;SDS011;6916;51.504;7.416;2022-07-06T15:19:34;1.90;;;0.40;;
13687;SDS011;6916;51.504;7.416;2022-07-06T15:24:38;3.53;;;0.30;;
13687;SDS011;6916;51.504;7.416;2022-07-06T15:29:41;1.50;;;0.30;;
13687;SDS011;6916;51.504;7.416;2022-07-06T15:34:43;2.38;;;0.50;;
13687;SDS011;6916;51.504;7.416;2022-07-06T15:39:46;3.13;;;0.57;;
13687;SDS011;6916;51.504;7.416;2022-07-06T15:44:48;3.67;;;0.93;;
13687;SDS011;6916;51.504;7.416;2022-07-06T15:49:52;2.30;;;0.77;;
13687;SDS011;6916;51.504;7.416;2022-07-06T15:54:55;2.35;;;0.20;;
13687;SDS011;6916;51.504;7.416;2022-07-06T15:59:57;3.80;;;0.40;;
13687;SDS011;6916;51.504;7.416;2022-07-06T16:04:59;3.25;;;0.40;;
13687;SDS011;6916;51.504;7.416;2022-07-06T16:10:04;1.33;;;0.40;;
13687;SDS011;6916;51.504;7.416;2022-07-06T16:15:07;3.53;;;0.45;;
13687;SDS011;6916;51.504;7.416;2022-07-06T16:20:10;3.97;;;0.50;;
13687;SDS011;6916;51.504;7.416;2022-07-06T16:25:13;2.78;;;0.50;;
13687;SDS011;6916;51.504;7.416;2022-07-06T16:30:16;2.40;;;0.30;;
13687;SDS011;6916;51.504;7.416;2022-07-06T16:35:23;2.17;;;0.50;;
13687;SDS011;6916;51.504;7.416;2022-07-06T16:40:27;2.35;;;0.30;;
13687;SDS011;6916;51.504;7.416;2022-07-06T16:45:47;1.38;;;0.20;;
13687;SDS011;6916;51.504;7.416;2022-07-06T16:50:49;0.88;;;0.25;;
13687;SDS011;6916;51.504;7.416;2022-07-06T16:55:52;3.65;;;0.20;;
13687;SDS011;6916;51.504;7.416;2022-07-06T17:00:55;4.28;;;0.30;;
13687;SDS011;6916;51.504;7.416;2022-07-06T17:05:57;0.77;;;0.30;;
13687;SDS011;6916;51.504;7.416;2022-07-06T17:10:59;1.85;;;0.20;;
13687;SDS011;6916;51.504;7.416;2022-07-06T17:16:02;1.73;;;0.32;;
13687;SDS011;6916;51.504;7.416;2022-07-06T17:21:04;1.33;;;0.40;;
13687;SDS011;6916;51.504;7.416;2022-07-06T17:26:07;2.20;;;0.30;;
13687;SDS011;6916;51.504;7.416;2022-07-06T17:31:09;0.50;;;0.20;;
13687;SDS011;6916;51.504;7.416;2022-07-06T17:36:12;1.15;;;0.20;;
13687;SDS011;6916;51.504;7.416;2022-07-06T17:41:14;1.55;;;0.20;;
13687;SDS011;6916;51.504;7.416;2022-07-06T17:46:17;2.45;;;0.20;;
13687;SDS011;6916;51.504;7.416;2022-07-06T17:51:20;3.25;;;0.20;;
13687;SDS011;6916;51.504;7.416;2022-07-06T17:56:22;1.17;;;0.40;;
13687;SDS011;6916;51.504;7.416;2022-07-06T18:01:24;4.15;;;0.40;;
13687;SDS011;6916;51.504;7.416;2022-07-06T18:06:27;2.20;;;0.60;;
13687;SDS011;6916;51.504;7.416;2022-07-06T18:11:29;1.65;;;0.30;;
13687;SDS011;6916;51.504;7.416;2022-07-06T18:16:31;1.42;;;0.30;;
13687;SDS011;6916;51.504;7.416;2022-07-06T18:21:34;2.97;;;0.38;;
13687;SDS011;6916;51.504;7.416;2022-07-06T18:26:36;0.90;;;0.20;;
13687;SDS011;6916;51.504;7.416;2022-07-06T18:31:39;4.80;;;0.52;;
13687;SDS011;6916;51.504;7.416;2022-07-06T18:36:42;2.70;;;0.30;;
13687;SDS011;6916;51.504;7.416;2022-07-06T18:41:45;2.63;;;0.30;;
13687;SDS011;6916;51.504;7.416;2022-07-06T18:46:54;1.05;;;0.35;;
13687;SDS011;6916;51.504;7.416;2022-07-06T18:51:57;2.38;;;0.38;;
13687;SDS011;6916;51.504;7.416;2022-07-06T18:57:00;5.93;;;0.50;;
13687;SDS011;6916;51.504;7.416;2022-07-06T19:02:02;0.60;;;0.30;;
13687;SDS011;6916;51.504;7.416;2022-07-06T19:07:05;1.73;;;0.20;;
13687;SDS011;6916;51.504;7.416;2022-07-06T19:12:08;1.63;;;0.47;;
13687;SDS011;6916;51.504;7.416;2022-07-06T19:17:10;4.07;;;0.40;;
13687;SDS011;6916;51.504;7.416;2022-07-06T19:22:13;1.83;;;0.30;;
13687;SDS011;6916;51.504;7.416;2022-07-06T19:27:15;2.63;;;0.35;;
13687;SDS011;6916;51.504;7.416;2022-07-06T19:32:17;1.42;;;0.20;;
13687;SDS011;6916;51.504;7.416;2022-07-06T19:37:20;3.85;;;0.40;;
13687;SDS011;6916;51.504;7.416;2022-07-06T19:42:22;1.10;;;0.40;;
13687;SDS011;6916;51.504;7.416;2022-07-06T19:47:25;2.05;;;0.55;;
13687;SDS011;6916;51.504;7.416;2022-07-06T19:52:27;3.15;;;0.30;;
13687;SDS011;6916;51.504;7.416;2022-07-06T19:57:29;3.30;;;0.30;;
13687;SDS011;6916;51.504;7.416;2022-07-06T20:02:32;1.88;;;0.50;;
13687;SDS011;6916;51.504;7.416;2022-07-06T20:07:35;2.83;;;0.43;;
13687;SDS011;6916;51.504;7.416;2022-07-06T20:12:37;1.95;;;0.40;;
13687;SDS011;6916;51.504;7.416;2022-07-06T20:17:40;3.25;;;0.57;;
13687;SDS011;6916;51.504;7.416;2022-07-06T20:22:42;1.13;;;0.30;;
13687;SDS011;6916;51.504;7.416;2022-07-06T20:27:45;0.35;;;0.28;;
13687;SDS011;6916;51.504;7.416;2022-07-06T20:32:57;2.10;;;0.38;;
13687;SDS011;6916;51.504;7.416;2022-07-06T20:38:00;0.50;;;0.20;;
13687;SDS011;6916;51.504;7.416;2022-07-06T20:43:02;3.30;;;0.57;;
13687;SDS011;6916;51.504;7.416;2022-07-06T20:48:23;1.52;;;0.32;;
13687;SDS011;6916;51.504;7.416;2022-07-06T20:53:25;0.80;;;0.30;;
13687;SDS011;6916;51.504;7.416;2022-07-06T20:58:29;0.55;;;0.40;;
13687;SDS011;6916;51.504;7.416;2022-07-06T21:03:51;2.60;;;0.35;;
13687;SDS011;6916;51.504;7.416;2022-07-06T21:08:54;1.05;;;0.40;;
13687;SDS011;6916;51.504;7.416;2022-07-06T21:13:57;1.70;;;0.60;;
13687;SDS011;6916;51.504;7.416;2022-07-06T21:18:59;1.50;;;0.77;;
13687;SDS011;6916;51.504;7.416;2022-07-06T21:24:02;5.00;;;1.00;;
13687;SDS011;6916;51.504;7.416;2022-07-06T21:29:05;1.63;;;0.55;;
13687;SDS011;6916;51.504;7.416;2022-07-06T21:34:07;3.67;;;0.47;;
13687;SDS011;6916;51.504;7.416;2022-07-06T21:39:09;2.42;;;0.70;;
13687;SDS011;6916;51.504;7.416;2022-07-06T21:44:12;1.40;;;0.50;;
13687;SDS011;6916;51.504;7.416;2022-07-06T21:49:14;2.83;;;0.40;;
13687;SDS011;6916;51.504;7.416;2022-07-06T21:54:16;4.57;;;0.73;;
13687;SDS011;6916;51.504;7.416;2022-07-06T21:59:19;2.42;;;0.50;;
13687;SDS011;6916;51.504;7.416;2022-07-06T22:04:21;0.68;;;0.43;;
13687;SDS011;6916;51.504;7.416;2022-07-06T22:09:26;4.05;;;0.50;;
13687;SDS011;6916;51.504;7.416;2022-07-06T22:14:33;4.50;;;0.57;;
13687;SDS011;6916;51.504;7.416;2022-07-06T22:19:35;2.25;;;0.40;;
13687;SDS011;6916;51.504;7.416;2022-07-06T22:24:37;2.83;;;0.80;;
13687;SDS011;6916;51.504;7.416;2022-07-06T22:29:40;1.63;;;0.63;;
13687;SDS011;6916;51.504;7.416;2022-07-06T22:34:43;2.38;;;0.50;;
13687;SDS011;6916;51.504;7.416;2022-07-06T22:39:45;3.53;;;0.60;;
13687;SDS011;6916;51.504;7.416;2022-07-06T22:44:47;3.35;;;0.55;;
13687;SDS011;6916;51.504;7.416;2022-07-06T22:49:56;4.10;;;0.60;;
13687;SDS011;6916;51.504;7.416;2022-07-06T22:54:59;4.38;;;0.55;;
13687;SDS011;6916;51.504;7.416;2022-07-06T23:00:03;2.17;;;0.70;;
13687;SDS011;6916;51.504;7.416;2022-07-06T23:05:07;1.63;;;0.52;;
13687;SDS011;6916;51.504;7.416;2022-07-06T23:10:10;3.95;;;0.90;;
13687;SDS011;6916;51.504;7.416;2022-07-06T23:15:12;1.80;;;0.55;;
13687;SDS011;6916;51.504;7.416;2022-07-06T23:20:14;1.70;;;0.65;;
13687;SDS011;6916;51.504;7.416;2022-07-06T23:25:17;1.60;;;0.55;;
13687;SDS011;6916;51.504;7.416;2022-07-06T23:30:19;1.77;;;0.52;;
13687;SDS011;6916;51.504;7.416;2022-07-06T23:35:22;2.70;;;0.90;;
13687;SDS011;6916;51.504;7.416;2022-07-06T23:40:24;3.13;;;0.93;;
13687;SDS011;6916;51.504;7.416;2022-07-06T23:45:27;4.78;;;0.88;;
13687;SDS011;6916;51.504;7.416;2022-07-06T23:50:29;3.03;;;1.25;;
13687;SDS011;6916;51.504;7.416;2022-07-06T23:55:31;4.05;;;1.13;;
